createdAt,value
2023-02-11T00:01:28.912Z,17.33
2023-02-11T00:03:58.782Z,16.00
2023-02-11T00:06:29.185Z,14.50
2023-02-11T00:08:57.859Z,15.25
2023-02-11T00:11:30.710Z,14.75
2023-02-11T00:14:04.546Z,15.00
2023-02-11T00:16:33.321Z,15.25
2023-02-11T00:19:02.959Z,15.75
2023-02-11T00:21:31.799Z,14.67
2023-02-11T00:24:02.435Z,14.25
2023-02-11T00:26:33.809Z,14.67
2023-02-11T00:29:02.768Z,14.00
2023-02-11T00:31:34.213Z,14.75
2023-02-11T00:34:02.621Z,15.75
2023-02-11T00:36:31.587Z,16.00
2023-02-11T00:39:00.271Z,14.50
2023-02-11T00:41:30.172Z,14.00
2023-02-11T00:44:01.748Z,13.75
2023-02-11T00:46:30.532Z,16.00
2023-02-11T00:48:58.808Z,14.00
2023-02-11T00:51:28.778Z,15.25
2023-02-11T00:53:57.518Z,14.75
2023-02-11T00:56:26.031Z,14.75
2023-02-11T00:58:54.425Z,15.00
2023-02-11T01:01:23.554Z,14.33
2023-02-11T01:03:51.905Z,14.00
2023-02-11T01:06:20.660Z,14.50
2023-02-11T01:08:48.824Z,15.33
2023-02-11T01:11:20.065Z,14.50
2023-02-11T01:13:49.585Z,14.00
2023-02-11T01:16:19.002Z,14.75
2023-02-11T01:18:47.439Z,14.00
2023-02-11T01:21:18.635Z,14.33
2023-02-11T01:23:46.853Z,15.00
2023-02-11T01:26:15.373Z,14.00
2023-02-11T01:28:43.719Z,13.25
2023-02-11T01:31:12.330Z,15.25
2023-02-11T01:33:40.777Z,14.50
2023-02-11T01:36:09.546Z,13.00
2023-02-11T01:38:38.127Z,16.00
2023-02-11T01:41:09.431Z,13.50
2023-02-11T01:43:40.815Z,14.50
2023-02-11T01:46:31.757Z,14.50
2023-02-11T01:49:13.418Z,14.00
2023-02-11T01:51:57.148Z,14.00
2023-02-11T01:54:46.810Z,13.75
2023-02-11T01:57:25.202Z,14.00
2023-02-11T02:00:38.467Z,14.75
2023-02-11T02:03:11.617Z,15.67
2023-02-11T02:05:52.457Z,14.25
2023-02-11T02:08:27.910Z,13.25
2023-02-11T02:10:56.785Z,14.75
2023-02-11T02:13:26.205Z,15.00
2023-02-11T02:15:55.326Z,13.25
2023-02-11T02:18:52.561Z,14.00
2023-02-11T02:21:54.518Z,15.00
2023-02-11T02:24:50.893Z,14.25
2023-02-11T02:27:25.653Z,14.50
2023-02-11T02:30:24.701Z,14.00
2023-02-11T02:32:56.615Z,14.25
2023-02-11T02:35:55.913Z,12.75
2023-02-11T02:38:57.992Z,14.25
2023-02-11T02:41:31.992Z,14.25
2023-02-11T02:44:00.596Z,13.50
2023-02-11T02:46:47.260Z,15.00
2023-02-11T02:49:17.273Z,14.50
2023-02-11T02:52:03.886Z,13.50
2023-02-11T02:54:44.390Z,13.33
2023-02-11T02:57:34.505Z,15.00
2023-02-11T03:00:11.639Z,13.67
2023-02-11T03:03:04.818Z,14.00
2023-02-11T03:05:42.874Z,14.00
2023-02-11T03:08:22.527Z,14.25
2023-02-11T03:10:52.288Z,13.25
2023-02-11T03:13:24.617Z,14.50
2023-02-11T03:15:55.567Z,13.33
2023-02-11T03:18:26.995Z,13.67
2023-02-11T03:20:57.924Z,15.00
2023-02-11T03:23:41.872Z,13.00
2023-02-11T03:26:13.235Z,14.00
2023-02-11T03:28:50.271Z,12.50
2023-02-11T03:31:42.595Z,13.00
2023-02-11T03:34:19.649Z,12.25
2023-02-11T03:37:15.692Z,14.00
2023-02-11T03:39:52.156Z,12.50
2023-02-11T03:42:23.475Z,14.00
2023-02-11T03:44:56.778Z,12.67
2023-02-11T03:47:27.838Z,13.25
2023-02-11T03:49:58.107Z,14.00
2023-02-11T03:52:26.817Z,13.75
2023-02-11T03:54:57.946Z,13.50
2023-02-11T03:57:26.125Z,12.00
2023-02-11T03:59:57.215Z,12.00
2023-02-11T04:02:28.942Z,13.00
2023-02-11T04:04:58.053Z,13.50
2023-02-11T04:07:26.448Z,12.50
2023-02-11T04:09:54.975Z,13.75
2023-02-11T04:12:23.293Z,13.75
2023-02-11T04:14:51.851Z,13.00
2023-02-11T04:17:19.918Z,12.25
2023-02-11T04:19:48.329Z,12.50
2023-02-11T04:22:16.478Z,13.75
2023-02-11T04:24:44.865Z,13.75
2023-02-11T04:27:13.101Z,13.00
2023-02-11T04:29:41.621Z,12.67
2023-02-11T04:32:11.189Z,13.00
2023-02-11T04:34:40.078Z,13.75
2023-02-11T04:37:08.642Z,14.25
2023-02-11T04:39:37.185Z,13.25
2023-02-11T04:42:05.761Z,14.50
2023-02-11T04:44:34.140Z,15.33
2023-02-11T04:47:02.332Z,14.00
2023-02-11T04:49:30.769Z,13.75
2023-02-11T04:51:58.880Z,14.50
2023-02-11T04:54:27.391Z,14.25
2023-02-11T04:56:55.575Z,14.25
2023-02-11T04:59:24.109Z,14.50
2023-02-11T05:01:52.335Z,16.25
2023-02-11T05:04:20.864Z,14.50
2023-02-11T05:06:49.062Z,15.00
2023-02-11T05:09:17.989Z,15.25
2023-02-11T05:11:46.110Z,15.25
2023-02-11T05:14:14.481Z,15.50
2023-02-11T05:16:42.644Z,17.75
2023-02-11T05:19:11.419Z,19.00
2023-02-11T05:21:40.122Z,18.00
2023-02-11T05:24:10.786Z,21.00
2023-02-11T05:26:38.934Z,21.00
2023-02-11T05:29:07.550Z,21.33
2023-02-11T05:31:35.659Z,23.50
2023-02-11T05:34:04.329Z,23.75
2023-02-11T05:36:33.612Z,25.00
2023-02-11T05:39:02.088Z,25.25
2023-02-11T05:41:30.233Z,25.00
2023-02-11T05:43:58.858Z,27.00
2023-02-11T05:46:27.160Z,27.50
2023-02-11T05:48:56.971Z,29.75
2023-02-11T05:51:25.483Z,29.25
2023-02-11T05:53:54.175Z,35.00
2023-02-11T05:56:22.301Z,33.50
2023-02-11T05:58:50.732Z,38.00
2023-02-11T06:01:18.876Z,38.75
2023-02-11T06:03:50.232Z,37.75
2023-02-11T06:06:18.514Z,39.75
2023-02-11T06:08:46.919Z,40.75
2023-02-11T06:11:16.458Z,40.25
2023-02-11T06:13:44.889Z,41.50
2023-02-11T06:16:13.070Z,41.25
2023-02-11T06:18:41.438Z,40.00
2023-02-11T06:21:12.727Z,41.00
2023-02-11T06:23:41.120Z,41.67
2023-02-11T06:26:10.987Z,43.00
2023-02-11T06:28:41.929Z,41.25
2023-02-11T06:31:12.038Z,43.50
2023-02-11T06:33:40.789Z,41.25
2023-02-11T06:36:14.951Z,38.25
2023-02-11T06:38:43.472Z,40.50
2023-02-11T06:41:13.779Z,42.50
2023-02-11T06:43:42.765Z,37.75
2023-02-11T06:46:11.043Z,38.50
2023-02-11T06:48:39.469Z,42.75
2023-02-11T06:51:10.142Z,41.33
2023-02-11T06:53:40.563Z,42.75
2023-02-11T06:56:11.635Z,41.25
2023-02-11T06:58:40.793Z,42.25
2023-02-11T07:01:11.871Z,40.67
2023-02-11T07:03:43.716Z,45.00
2023-02-11T07:06:14.999Z,44.00
2023-02-11T07:08:46.066Z,40.25
2023-02-11T07:11:19.632Z,43.50
2023-02-11T07:13:48.419Z,45.00
2023-02-11T07:16:18.220Z,41.25
2023-02-11T07:18:47.632Z,44.25
2023-02-11T07:21:18.296Z,46.00
2023-02-11T07:23:48.727Z,48.50
2023-02-11T07:26:20.264Z,46.75
2023-02-11T07:28:49.143Z,46.25
2023-02-11T07:31:21.148Z,45.00
2023-02-11T07:33:49.982Z,48.25
2023-02-11T07:36:18.221Z,47.25
2023-02-11T07:38:47.369Z,45.25
2023-02-11T07:41:18.879Z,43.50
2023-02-11T07:43:47.959Z,47.67
2023-02-11T07:46:25.001Z,44.25
2023-02-11T07:48:54.240Z,45.25
2023-02-11T07:51:27.657Z,42.33
2023-02-11T07:53:58.632Z,40.75
2023-02-11T07:56:27.578Z,39.75
2023-02-11T07:58:59.811Z,42.00
2023-02-11T08:01:28.904Z,41.25
2023-02-11T08:03:59.180Z,39.50
2023-02-11T08:06:29.334Z,40.75
2023-02-11T08:08:58.588Z,40.00
2023-02-11T08:11:28.963Z,38.33
2023-02-11T08:13:57.416Z,40.50
2023-02-11T08:16:34.189Z,36.75
2023-02-11T08:19:06.277Z,37.50
2023-02-11T08:21:34.387Z,36.00
2023-02-11T08:24:03.990Z,38.50
2023-02-11T08:26:34.862Z,35.00
2023-02-11T08:29:08.301Z,34.50
2023-02-11T08:31:38.710Z,34.00
2023-02-11T08:34:07.516Z,33.25
2023-02-11T08:36:36.984Z,32.25
2023-02-11T08:39:19.306Z,36.25
2023-02-11T08:41:53.982Z,32.25
2023-02-11T08:44:23.249Z,32.00
2023-02-11T08:46:52.073Z,31.33
2023-02-11T08:49:20.684Z,33.00
2023-02-11T08:51:49.843Z,31.00
2023-02-11T08:54:18.273Z,31.00
2023-02-11T08:56:46.653Z,30.75
2023-02-11T08:59:15.698Z,31.50
2023-02-11T09:01:44.640Z,29.00
2023-02-11T09:04:13.751Z,27.75
2023-02-11T09:06:41.957Z,31.50
2023-02-11T09:09:13.737Z,27.00
2023-02-11T09:11:43.462Z,28.25
2023-02-11T09:14:21.103Z,26.33
2023-02-11T09:16:49.658Z,26.25
2023-02-11T09:19:18.666Z,23.75
2023-02-11T09:21:47.547Z,25.25
2023-02-11T09:24:16.051Z,26.00
2023-02-11T09:26:44.213Z,26.25
2023-02-11T09:29:13.379Z,24.00
2023-02-11T09:31:41.612Z,25.50
2023-02-11T09:34:11.307Z,25.25
2023-02-11T09:36:40.953Z,25.00
2023-02-11T09:39:17.275Z,25.25
2023-02-11T09:41:54.365Z,24.50
2023-02-11T09:44:26.842Z,25.50
2023-02-11T09:47:05.746Z,23.25
2023-02-11T09:49:45.317Z,23.50
2023-02-11T09:52:47.059Z,22.67
2023-02-11T09:55:19.698Z,21.50
2023-02-11T09:57:48.159Z,23.00
2023-02-11T10:00:28.239Z,22.50
2023-02-11T10:03:13.456Z,24.00
2023-02-11T10:05:56.984Z,24.50
2023-02-11T10:08:35.941Z,23.67
2023-02-11T10:11:52.447Z,22.00
2023-02-11T10:14:26.491Z,22.00
2023-02-11T10:17:09.281Z,22.50
2023-02-11T10:19:50.592Z,23.00
2023-02-11T10:22:33.774Z,22.00
2023-02-11T10:25:18.695Z,23.50
2023-02-11T10:27:47.650Z,20.67
2023-02-11T10:30:31.816Z,21.75
2023-02-11T10:33:25.302Z,21.67
2023-02-11T10:35:53.621Z,19.25
2023-02-11T10:38:22.280Z,21.25
2023-02-11T10:40:50.633Z,20.75
2023-02-11T10:43:21.729Z,21.25
2023-02-11T10:45:52.420Z,22.25
2023-02-11T10:48:47.084Z,19.25
2023-02-11T10:51:35.772Z,20.25
2023-02-11T10:54:24.989Z,20.25
2023-02-11T10:56:59.861Z,21.25
2023-02-11T10:59:31.162Z,20.25
2023-02-11T11:02:03.111Z,21.67
2023-02-11T11:04:34.292Z,19.50
2023-02-11T11:07:29.247Z,19.00
2023-02-11T11:10:03.077Z,19.75
2023-02-11T11:12:49.591Z,20.00
2023-02-11T11:15:18.984Z,20.00
2023-02-11T11:17:47.122Z,21.00
2023-02-11T11:20:19.161Z,19.50
2023-02-11T11:22:49.210Z,18.33
2023-02-11T11:25:46.217Z,18.67
2023-02-11T11:28:26.472Z,20.25
2023-02-11T11:30:56.437Z,19.00
2023-02-11T11:33:28.530Z,19.50
2023-02-11T11:36:20.347Z,19.00
2023-02-11T11:38:58.221Z,19.25
2023-02-11T11:41:26.698Z,20.00
2023-02-11T11:44:05.038Z,18.00
2023-02-11T11:46:36.292Z,19.00
2023-02-11T11:49:25.635Z,19.25
2023-02-11T11:52:31.333Z,21.00
2023-02-11T11:55:13.142Z,19.50
2023-02-11T11:57:42.664Z,18.50
2023-02-11T12:00:16.151Z,19.00
2023-02-11T12:03:18.804Z,19.33
2023-02-11T12:06:10.254Z,18.00
2023-02-11T12:09:08.052Z,18.00
2023-02-11T12:12:04.141Z,18.00
2023-02-11T12:14:48.266Z,17.75
2023-02-11T12:17:35.132Z,17.75
2023-02-11T12:20:24.106Z,20.50
2023-02-11T12:23:22.304Z,18.75
2023-02-11T12:26:11.157Z,19.33
2023-02-11T12:28:54.423Z,17.25
2023-02-11T12:31:40.101Z,17.50
2023-02-11T12:34:26.630Z,18.00
2023-02-11T12:37:16.515Z,18.33
2023-02-11T12:39:51.815Z,18.25
2023-02-11T12:43:10.968Z,19.50
2023-02-11T12:45:44.381Z,16.33
2023-02-11T12:48:44.012Z,19.00
2023-02-11T12:51:49.504Z,18.00
2023-02-11T12:54:23.514Z,19.75
2023-02-11T12:57:02.955Z,17.00
2023-02-11T12:59:55.535Z,18.75
2023-02-11T13:02:27.073Z,17.25
2023-02-11T13:04:58.656Z,17.67
2023-02-11T13:07:35.260Z,17.00
2023-02-11T13:10:32.954Z,18.25
2023-02-11T13:13:19.392Z,18.75
2023-02-11T13:15:52.509Z,17.00
2023-02-11T13:18:44.408Z,18.00
2023-02-11T13:21:15.748Z,18.00
2023-02-11T13:24:03.130Z,18.75
2023-02-11T13:27:21.335Z,16.25
2023-02-11T13:30:14.464Z,17.00
2023-02-11T13:32:55.871Z,18.75
2023-02-11T13:35:38.066Z,16.25
2023-02-11T13:38:25.497Z,15.50
2023-02-11T13:41:33.859Z,15.75
2023-02-11T13:44:06.031Z,17.00
2023-02-11T13:46:54.401Z,16.50
2023-02-11T13:49:31.549Z,15.25
2023-02-11T13:52:01.130Z,15.75
2023-02-11T13:54:37.877Z,16.00
2023-02-11T13:57:21.251Z,14.75
2023-02-11T13:59:52.717Z,16.25
2023-02-11T14:02:43.312Z,16.67
2023-02-11T14:05:44.866Z,15.33
2023-02-11T14:08:33.317Z,16.00
2023-02-11T14:11:33.617Z,15.00
2023-02-11T14:14:24.072Z,15.75
2023-02-11T14:16:58.464Z,15.50
2023-02-11T14:19:33.807Z,14.50
2023-02-11T14:22:26.852Z,15.75
2023-02-11T14:24:57.925Z,15.00
2023-02-11T14:27:29.401Z,13.50
2023-02-11T14:30:15.801Z,15.33
2023-02-11T14:33:05.864Z,14.67
2023-02-11T14:35:58.848Z,15.00
2023-02-11T14:38:46.246Z,13.75
2023-02-11T14:41:26.131Z,13.25
2023-02-11T14:44:04.469Z,15.50
2023-02-11T14:46:33.445Z,13.75
2023-02-11T14:49:04.043Z,15.00
2023-02-11T14:51:36.382Z,15.50
2023-02-11T14:54:21.699Z,15.33
2023-02-11T14:57:14.159Z,14.50
2023-02-11T15:00:02.874Z,13.50
2023-02-11T15:02:35.973Z,15.50
2023-02-11T15:05:26.348Z,16.00
2023-02-11T15:08:00.302Z,15.50
2023-02-11T15:10:32.051Z,15.25
2023-02-11T15:13:01.587Z,15.00
2023-02-11T15:15:32.246Z,17.00
2023-02-11T15:18:03.321Z,15.75
2023-02-11T15:20:36.112Z,14.33
2023-02-11T15:23:11.187Z,15.75
2023-02-11T15:25:51.326Z,14.50
2023-02-11T15:28:38.226Z,14.67
2023-02-11T15:31:16.149Z,14.00
2023-02-11T15:33:44.685Z,15.00
2023-02-11T15:36:14.894Z,15.00
2023-02-11T15:38:43.372Z,15.50
2023-02-11T15:41:36.440Z,14.67
2023-02-11T15:44:04.773Z,17.00
2023-02-11T15:46:38.585Z,15.00
2023-02-11T15:49:08.728Z,15.25
2023-02-11T15:51:39.026Z,14.75
2023-02-11T15:54:20.979Z,14.50
2023-02-11T15:56:55.726Z,14.25
2023-02-11T15:59:35.025Z,16.00
2023-02-11T16:02:17.662Z,15.00
2023-02-11T16:04:54.961Z,15.75
2023-02-11T16:07:42.377Z,15.25
2023-02-11T16:10:25.514Z,15.75
2023-02-11T16:12:55.604Z,15.75
2023-02-11T16:15:34.082Z,14.75
2023-02-11T16:18:05.614Z,16.50
2023-02-11T16:20:34.357Z,15.00
2023-02-11T16:23:03.948Z,16.00
2023-02-11T16:25:32.583Z,16.50
2023-02-11T16:28:01.719Z,15.67
2023-02-11T16:30:34.790Z,15.25
2023-02-11T16:33:04.493Z,14.75
2023-02-11T16:35:32.876Z,16.50
2023-02-11T16:38:01.614Z,15.75
2023-02-11T16:40:29.873Z,15.50
2023-02-11T16:42:58.797Z,17.00
2023-02-11T16:45:27.115Z,16.75
2023-02-11T16:47:55.765Z,16.50
2023-02-11T16:50:25.610Z,16.00
2023-02-11T16:52:54.604Z,17.00
2023-02-11T16:55:22.777Z,16.00
2023-02-11T16:57:51.404Z,17.25
2023-02-11T17:00:20.260Z,15.50
2023-02-11T17:02:48.812Z,16.75
2023-02-11T17:05:20.522Z,18.00
2023-02-11T17:07:50.032Z,15.75
2023-02-11T17:10:23.667Z,16.00
2023-02-11T17:12:53.576Z,15.75
2023-02-11T17:15:21.799Z,16.75
2023-02-11T17:17:50.379Z,16.50
2023-02-11T17:20:18.808Z,17.00
2023-02-11T17:22:47.647Z,16.00
2023-02-11T17:25:15.966Z,16.00
2023-02-11T17:27:44.639Z,15.50
2023-02-11T17:30:14.034Z,16.50
2023-02-11T17:32:42.549Z,16.50
2023-02-11T17:35:10.860Z,16.33
2023-02-11T17:37:39.349Z,15.25
2023-02-11T17:40:08.828Z,14.75
2023-02-11T17:42:37.229Z,15.75
2023-02-11T17:45:06.089Z,16.50
2023-02-11T17:47:35.639Z,17.75
2023-02-11T17:50:04.386Z,16.00
2023-02-11T17:52:33.077Z,17.00
2023-02-11T17:55:01.271Z,17.00
2023-02-11T17:57:29.799Z,15.67
2023-02-11T17:59:58.104Z,16.50
2023-02-11T18:02:26.707Z,16.50
2023-02-11T18:04:57.658Z,17.50
2023-02-11T18:07:26.891Z,16.75
2023-02-11T18:09:55.169Z,16.25
2023-02-11T18:12:26.865Z,16.75
2023-02-11T18:14:58.026Z,17.50
2023-02-11T18:17:26.830Z,17.75
2023-02-11T18:19:58.340Z,17.00
2023-02-11T18:22:26.989Z,16.25
2023-02-11T18:24:55.537Z,16.50
2023-02-11T18:27:24.350Z,18.00
2023-02-11T18:29:52.419Z,17.00
2023-02-11T18:32:21.089Z,17.50
2023-02-11T18:34:49.194Z,16.75
2023-02-11T18:37:17.655Z,17.75
2023-02-11T18:39:45.796Z,17.33
2023-02-11T18:42:14.359Z,18.50
2023-02-11T18:44:42.475Z,17.67
2023-02-11T18:47:11.184Z,17.75
2023-02-11T18:49:39.553Z,17.75
2023-02-11T18:52:08.183Z,17.00
2023-02-11T18:54:36.484Z,16.75
2023-02-11T18:57:05.395Z,16.75
2023-02-11T18:59:33.634Z,17.25
2023-02-11T19:02:02.264Z,18.00
2023-02-11T19:04:30.691Z,18.50
2023-02-11T19:07:03.323Z,17.50
2023-02-11T19:09:31.946Z,16.75
2023-02-11T19:12:02.216Z,18.75
2023-02-11T19:14:33.942Z,18.50
2023-02-11T19:17:05.552Z,18.50
2023-02-11T19:19:35.683Z,18.25
2023-02-11T19:22:10.010Z,18.00
2023-02-11T19:24:39.235Z,19.25
2023-02-11T19:27:08.235Z,18.75
2023-02-11T19:29:36.631Z,19.25
2023-02-11T19:32:06.569Z,17.50
2023-02-11T19:34:41.423Z,18.67
2023-02-11T19:37:12.944Z,18.75
2023-02-11T19:39:42.482Z,20.50
2023-02-11T19:42:11.851Z,18.00
2023-02-11T19:44:40.180Z,18.75
2023-02-11T19:47:10.489Z,19.67
2023-02-11T19:49:38.846Z,19.50
2023-02-11T19:52:07.445Z,21.50
2023-02-11T19:54:35.951Z,21.00
2023-02-11T19:57:04.551Z,19.00
2023-02-11T19:59:32.883Z,19.25
2023-02-11T20:02:01.915Z,19.75
2023-02-11T20:04:32.378Z,19.33
2023-02-11T20:07:01.025Z,20.75
2023-02-11T20:09:31.300Z,20.25
2023-02-11T20:12:00.075Z,20.50
2023-02-11T20:14:28.422Z,18.00
2023-02-11T20:16:57.090Z,19.00
2023-02-11T20:19:25.459Z,21.00
2023-02-11T20:21:56.061Z,19.50
2023-02-11T20:24:25.370Z,19.00
2023-02-11T20:26:57.207Z,20.00
2023-02-11T20:29:26.065Z,19.25
2023-02-11T20:31:55.176Z,20.25
2023-02-11T20:34:25.204Z,23.00
2023-02-11T20:36:54.400Z,20.50
2023-02-11T20:39:24.109Z,20.75
2023-02-11T20:41:54.079Z,22.00
2023-02-11T20:44:23.249Z,22.00
2023-02-11T20:46:54.468Z,20.25
2023-02-11T20:49:24.288Z,22.00
2023-02-11T20:51:54.108Z,23.00
2023-02-11T20:54:23.877Z,21.25
2023-02-11T20:56:54.122Z,23.00
2023-02-11T20:59:23.317Z,19.50
2023-02-11T21:01:54.342Z,22.50
2023-02-11T21:04:25.604Z,21.75
2023-02-11T21:06:59.578Z,23.00
2023-02-11T21:09:30.898Z,21.67
2023-02-11T21:12:00.820Z,23.50
2023-02-11T21:14:29.617Z,22.00
2023-02-11T21:16:58.782Z,24.25
2023-02-11T21:19:27.340Z,23.00
2023-02-11T21:21:57.505Z,23.50
2023-02-11T21:24:25.942Z,23.33
2023-02-11T21:26:54.933Z,24.00
2023-02-11T21:29:23.312Z,23.50
2023-02-11T21:31:51.991Z,23.00
2023-02-11T21:34:20.960Z,24.00
2023-02-11T21:36:51.417Z,25.00
2023-02-11T21:39:20.588Z,25.75
2023-02-11T21:41:49.583Z,24.00
2023-02-11T21:44:18.745Z,26.00
2023-02-11T21:46:47.430Z,27.00
2023-02-11T21:49:15.864Z,26.00
2023-02-11T21:51:44.454Z,25.00
2023-02-11T21:54:12.732Z,24.25
2023-02-11T21:56:41.720Z,25.00
2023-02-11T21:59:12.408Z,26.75
2023-02-11T22:01:41.316Z,23.75
2023-02-11T22:04:10.028Z,24.75
2023-02-11T22:06:39.334Z,26.00
2023-02-11T22:09:10.925Z,26.75
2023-02-11T22:11:40.062Z,26.75
2023-02-11T22:14:08.578Z,25.25
2023-02-11T22:16:37.245Z,24.67
2023-02-11T22:19:07.660Z,24.75
2023-02-11T22:21:36.317Z,27.50
2023-02-11T22:24:04.802Z,28.00
2023-02-11T22:26:33.548Z,24.50
2023-02-11T22:29:02.036Z,24.75
2023-02-11T22:31:33.429Z,26.67
2023-02-11T22:34:03.398Z,23.25
2023-02-11T22:36:34.707Z,25.67
2023-02-11T22:39:08.669Z,27.50
2023-02-11T22:41:41.146Z,27.00
2023-02-11T22:44:10.041Z,25.25
2023-02-11T22:46:38.849Z,26.00
2023-02-11T22:49:07.614Z,25.75
2023-02-11T22:51:36.537Z,26.25
2023-02-11T22:54:06.902Z,26.75
2023-02-11T22:56:35.518Z,25.00
2023-02-11T22:59:06.359Z,25.75
2023-02-11T23:01:35.388Z,26.75
2023-02-11T23:04:05.742Z,27.00
2023-02-11T23:06:35.044Z,26.00
2023-02-11T23:09:05.441Z,27.33
2023-02-11T23:11:34.535Z,24.75
2023-02-11T23:14:03.140Z,28.25
2023-02-11T23:16:34.248Z,27.50
2023-02-11T23:19:08.265Z,25.75
2023-02-11T23:21:38.803Z,27.25
2023-02-11T23:24:15.773Z,27.25
2023-02-11T23:26:44.687Z,28.50
2023-02-11T23:29:13.091Z,25.75
2023-02-11T23:31:45.436Z,24.33
2023-02-11T23:34:20.478Z,27.00
2023-02-11T23:36:48.967Z,26.00
2023-02-11T23:39:17.304Z,25.50
2023-02-11T23:41:46.421Z,28.00
2023-02-11T23:44:14.525Z,26.75
2023-02-11T23:46:43.016Z,27.50
2023-02-11T23:49:11.066Z,25.75
2023-02-11T23:51:39.551Z,26.25
2023-02-11T23:54:07.726Z,28.25
2023-02-11T23:56:37.804Z,25.50
2023-02-11T23:59:06.133Z,27.25
